sensor_id;sensor_type;location;lat;lon;timestamp;pressure;altitude;pressure_sealevel;temperature;humidity
56270;BME280;42176;43.240;27.880;2023-06-04T00:02:13;100290.75;;;19.25;100.00
56270;BME280;42176;43.240;27.880;2023-06-04T00:04:39;100295.44;;;19.22;100.00
56270;BME280;42176;43.240;27.880;2023-06-04T00:07:04;100296.31;;;19.22;100.00
56270;BME280;42176;43.240;27.880;2023-06-04T00:09:30;100291.25;;;19.16;100.00
56270;BME280;42176;43.240;27.880;2023-06-04T00:11:55;100291.97;;;19.20;100.00
56270;BME280;42176;43.240;27.880;2023-06-04T00:14:21;100289.34;;;19.18;100.00
56270;BME280;42176;43.240;27.880;2023-06-04T00:16:47;100295.09;;;19.12;100.00
56270;BME280;42176;43.240;27.880;2023-06-04T00:19:12;100315.28;;;18.85;100.00
56270;BME280;42176;43.240;27.880;2023-06-04T00:21:38;100318.25;;;18.63;100.00
56270;BME280;42176;43.240;27.880;2023-06-04T00:24:03;100326.75;;;18.54;100.00
56270;BME280;42176;43.240;27.880;2023-06-04T00:26:29;100322.03;;;18.41;100.00
56270;BME280;42176;43.240;27.880;2023-06-04T00:28:54;100318.56;;;18.39;100.00
56270;BME280;42176;43.240;27.880;2023-06-04T00:31:20;100312.34;;;18.39;100.00
56270;BME280;42176;43.240;27.880;2023-06-04T00:33:49;100316.13;;;18.35;100.00
56270;BME280;42176;43.240;27.880;2023-06-04T00:36:15;100321.25;;;18.39;100.00
56270;BME280;42176;43.240;27.880;2023-06-04T00:38:40;100324.88;;;18.38;100.00
56270;BME280;42176;43.240;27.880;2023-06-04T00:41:06;100318.41;;;18.42;100.00
56270;BME280;42176;43.240;27.880;2023-06-04T00:43:31;100311.16;;;18.45;100.00
56270;BME280;42176;43.240;27.880;2023-06-04T00:45:58;100305.78;;;18.45;100.00
56270;BME280;42176;43.240;27.880;2023-06-04T00:48:24;100309.91;;;18.52;100.00
56270;BME280;42176;43.240;27.880;2023-06-04T00:50:53;100305.53;;;18.49;100.00
56270;BME280;42176;43.240;27.880;2023-06-04T00:53:20;100317.75;;;18.55;100.00
56270;BME280;42176;43.240;27.880;2023-06-04T00:55:46;100309.66;;;18.56;100.00
56270;BME280;42176;43.240;27.880;2023-06-04T00:58:11;100319.50;;;18.56;100.00
56270;BME280;42176;43.240;27.880;2023-06-04T01:00:37;100315.88;;;18.57;100.00
56270;BME280;42176;43.240;27.880;2023-06-04T01:03:06;100329.13;;;18.60;100.00
56270;BME280;42176;43.240;27.880;2023-06-04T01:05:37;100320.78;;;18.66;100.00
56270;BME280;42176;43.240;27.880;2023-06-04T01:08:06;100313.66;;;18.65;100.00
56270;BME280;42176;43.240;27.880;2023-06-04T01:10:35;100303.94;;;18.63;100.00
56270;BME280;42176;43.240;27.880;2023-06-04T01:13:01;100306.56;;;18.64;100.00
56270;BME280;42176;43.240;27.880;2023-06-04T01:15:26;100317.84;;;18.71;100.00
56270;BME280;42176;43.240;27.880;2023-06-04T01:17:56;100316.63;;;18.77;100.00
56270;BME280;42176;43.240;27.880;2023-06-04T01:20:43;100320.28;;;18.76;100.00
56270;BME280;42176;43.240;27.880;2023-06-04T01:23:31;100313.16;;;18.75;100.00
56270;BME280;42176;43.240;27.880;2023-06-04T01:26:03;100314.03;;;18.75;100.00
56270;BME280;42176;43.240;27.880;2023-06-04T01:28:30;100325.63;;;18.76;100.00
56270;BME280;42176;43.240;27.880;2023-06-04T01:30:58;100329.44;;;18.71;100.00
56270;BME280;42176;43.240;27.880;2023-06-04T01:33:25;100331.00;;;18.76;100.00
56270;BME280;42176;43.240;27.880;2023-06-04T01:35:51;100324.25;;;18.68;100.00
56270;BME280;42176;43.240;27.880;2023-06-04T01:38:17;100323.66;;;18.62;100.00
56270;BME280;42176;43.240;27.880;2023-06-04T01:40:43;100336.50;;;18.56;100.00
56270;BME280;42176;43.240;27.880;2023-06-04T01:43:09;100332.13;;;18.54;100.00
56270;BME280;42176;43.240;27.880;2023-06-04T01:45:34;100337.84;;;18.48;100.00
56270;BME280;42176;43.240;27.880;2023-06-04T01:48:04;100330.19;;;18.40;100.00
56270;BME280;42176;43.240;27.880;2023-06-04T01:50:30;100319.34;;;18.24;100.00
56270;BME280;42176;43.240;27.880;2023-06-04T01:52:56;100328.34;;;18.23;100.00
56270;BME280;42176;43.240;27.880;2023-06-04T01:55:22;100338.94;;;18.26;100.00
56270;BME280;42176;43.240;27.880;2023-06-04T01:57:47;100349.81;;;18.23;100.00
56270;BME280;42176;43.240;27.880;2023-06-04T02:00:13;100349.09;;;18.19;100.00
56270;BME280;42176;43.240;27.880;2023-06-04T02:02:41;100347.91;;;18.07;100.00
56270;BME280;42176;43.240;27.880;2023-06-04T02:05:07;100352.16;;;18.11;100.00
56270;BME280;42176;43.240;27.880;2023-06-04T02:07:37;100349.72;;;18.07;100.00
56270;BME280;42176;43.240;27.880;2023-06-04T02:10:14;100346.59;;;17.97;100.00
56270;BME280;42176;43.240;27.880;2023-06-04T02:12:52;100359.22;;;17.95;100.00
56270;BME280;42176;43.240;27.880;2023-06-04T02:15:18;100359.53;;;17.89;100.00
56270;BME280;42176;43.240;27.880;2023-06-04T02:17:43;100369.59;;;17.84;100.00
56270;BME280;42176;43.240;27.880;2023-06-04T02:20:11;100366.13;;;17.81;100.00
56270;BME280;42176;43.240;27.880;2023-06-04T02:22:36;100358.53;;;17.72;100.00
56270;BME280;42176;43.240;27.880;2023-06-04T02:25:02;100364.97;;;17.68;100.00
56270;BME280;42176;43.240;27.880;2023-06-04T02:27:27;100363.38;;;17.64;100.00
56270;BME280;42176;43.240;27.880;2023-06-04T02:29:53;100382.00;;;17.67;100.00
56270;BME280;42176;43.240;27.880;2023-06-04T02:32:18;100373.09;;;17.67;100.00
56270;BME280;42176;43.240;27.880;2023-06-04T02:34:44;100367.81;;;17.65;100.00
56270;BME280;42176;43.240;27.880;2023-06-04T02:37:09;100372.22;;;17.66;100.00
56270;BME280;42176;43.240;27.880;2023-06-04T02:39:35;100372.34;;;17.63;100.00
56270;BME280;42176;43.240;27.880;2023-06-04T02:42:00;100379.31;;;17.67;100.00
56270;BME280;42176;43.240;27.880;2023-06-04T02:44:26;100386.56;;;17.65;100.00
56270;BME280;42176;43.240;27.880;2023-06-04T02:46:51;100397.28;;;17.65;100.00
56270;BME280;42176;43.240;27.880;2023-06-04T02:49:17;100389.91;;;17.70;100.00
56270;BME280;42176;43.240;27.880;2023-06-04T02:51:43;100383.66;;;17.70;100.00
56270;BME280;42176;43.240;27.880;2023-06-04T02:54:09;100388.59;;;17.79;100.00
56270;BME280;42176;43.240;27.880;2023-06-04T02:56:36;100406.34;;;17.81;100.00
56270;BME280;42176;43.240;27.880;2023-06-04T02:59:02;100386.16;;;17.74;100.00
56270;BME280;42176;43.240;27.880;2023-06-04T03:01:28;100399.91;;;17.86;100.00
56270;BME280;42176;43.240;27.880;2023-06-04T03:03:54;100403.28;;;17.89;100.00
56270;BME280;42176;43.240;27.880;2023-06-04T03:06:21;100410.47;;;17.89;100.00
56270;BME280;42176;43.240;27.880;2023-06-04T03:08:48;100412.03;;;17.93;100.00
56270;BME280;42176;43.240;27.880;2023-06-04T03:11:13;100417.59;;;17.90;100.00
56270;BME280;42176;43.240;27.880;2023-06-04T03:13:40;100408.78;;;17.86;100.00
56270;BME280;42176;43.240;27.880;2023-06-04T03:16:05;100410.47;;;17.89;100.00
56270;BME280;42176;43.240;27.880;2023-06-04T03:18:39;100418.81;;;17.83;100.00
56270;BME280;42176;43.240;27.880;2023-06-04T03:21:06;100419.75;;;17.81;100.00
56270;BME280;42176;43.240;27.880;2023-06-04T03:23:32;100418.81;;;17.83;100.00
56270;BME280;42176;43.240;27.880;2023-06-04T03:25:58;100423.38;;;17.80;100.00
56270;BME280;42176;43.240;27.880;2023-06-04T03:28:23;100432.94;;;17.86;100.00
56270;BME280;42176;43.240;27.880;2023-06-04T03:30:49;100429.19;;;17.71;100.00
56270;BME280;42176;43.240;27.880;2023-06-04T03:33:15;100413.34;;;17.84;100.00
56270;BME280;42176;43.240;27.880;2023-06-04T03:35:41;100427.00;;;17.99;100.00
56270;BME280;42176;43.240;27.880;2023-06-04T03:38:06;100434.31;;;18.14;100.00
56270;BME280;42176;43.240;27.880;2023-06-04T03:40:32;100421.34;;;18.41;100.00
56270;BME280;42176;43.240;27.880;2023-06-04T03:42:57;100419.78;;;18.55;100.00
56270;BME280;42176;43.240;27.880;2023-06-04T03:45:23;100421.84;;;18.67;100.00
56270;BME280;42176;43.240;27.880;2023-06-04T03:47:48;100426.03;;;18.91;100.00
56270;BME280;42176;43.240;27.880;2023-06-04T03:50:14;100422.69;;;19.21;100.00
56270;BME280;42176;43.240;27.880;2023-06-04T03:52:39;100435.88;;;19.25;100.00
56270;BME280;42176;43.240;27.880;2023-06-04T03:55:05;100433.16;;;19.43;99.22
56270;BME280;42176;43.240;27.880;2023-06-04T03:57:30;100438.38;;;19.46;99.22
56270;BME280;42176;43.240;27.880;2023-06-04T03:59:57;100432.84;;;19.81;95.83
56270;BME280;42176;43.240;27.880;2023-06-04T04:02:23;100436.03;;;19.89;94.31
56270;BME280;42176;43.240;27.880;2023-06-04T04:04:48;100436.69;;;19.77;94.97
56270;BME280;42176;43.240;27.880;2023-06-04T04:07:15;100442.38;;;19.71;95.67
56270;BME280;42176;43.240;27.880;2023-06-04T04:09:40;100433.38;;;19.72;95.03
56270;BME280;42176;43.240;27.880;2023-06-04T04:12:06;100433.19;;;19.75;94.81
56270;BME280;42176;43.240;27.880;2023-06-04T04:14:32;100449.25;;;19.76;94.71
56270;BME280;42176;43.240;27.880;2023-06-04T04:16:57;100445.34;;;19.66;94.93
56270;BME280;42176;43.240;27.880;2023-06-04T04:19:23;100445.13;;;20.03;93.19
56270;BME280;42176;43.240;27.880;2023-06-04T04:21:48;100443.41;;;20.48;89.47
56270;BME280;42176;43.240;27.880;2023-06-04T04:24:27;100444.25;;;20.65;87.50
56270;BME280;42176;43.240;27.880;2023-06-04T04:26:53;100445.50;;;20.90;84.31
56270;BME280;42176;43.240;27.880;2023-06-04T04:29:20;100453.25;;;21.10;84.76
56270;BME280;42176;43.240;27.880;2023-06-04T04:31:51;100448.94;;;21.22;81.85
56270;BME280;42176;43.240;27.880;2023-06-04T04:34:17;100465.16;;;21.66;79.49
56270;BME280;42176;43.240;27.880;2023-06-04T04:36:46;100454.44;;;21.93;76.66
56270;BME280;42176;43.240;27.880;2023-06-04T04:39:21;100456.09;;;22.23;75.46
56270;BME280;42176;43.240;27.880;2023-06-04T04:41:47;100460.38;;;22.68;71.65
56270;BME280;42176;43.240;27.880;2023-06-04T04:44:13;100451.56;;;23.04;68.20
56270;BME280;42176;43.240;27.880;2023-06-04T04:46:38;100445.78;;;23.36;65.48
56270;BME280;42176;43.240;27.880;2023-06-04T04:49:03;100459.38;;;23.61;64.42
56270;BME280;42176;43.240;27.880;2023-06-04T04:51:29;100466.94;;;23.68;63.90
56270;BME280;42176;43.240;27.880;2023-06-04T04:53:55;100474.09;;;23.56;62.51
56270;BME280;42176;43.240;27.880;2023-06-04T04:56:20;100452.88;;;23.76;60.92
56270;BME280;42176;43.240;27.880;2023-06-04T04:58:48;100457.66;;;23.60;60.14
56270;BME280;42176;43.240;27.880;2023-06-04T05:01:13;100451.06;;;24.14;59.50
56270;BME280;42176;43.240;27.880;2023-06-04T05:03:39;100458.84;;;24.18;59.25
56270;BME280;42176;43.240;27.880;2023-06-04T05:06:04;100455.84;;;24.59;57.69
56270;BME280;42176;43.240;27.880;2023-06-04T05:08:30;100453.31;;;25.16;54.62
56270;BME280;42176;43.240;27.880;2023-06-04T05:10:55;100467.22;;;25.47;52.23
56270;BME280;42176;43.240;27.880;2023-06-04T05:13:21;100455.44;;;25.23;53.24
56270;BME280;42176;43.240;27.880;2023-06-04T05:15:47;100465.16;;;25.15;52.41
56270;BME280;42176;43.240;27.880;2023-06-04T05:18:13;100469.47;;;24.70;53.26
56270;BME280;42176;43.240;27.880;2023-06-04T05:20:41;100461.06;;;24.00;56.02
56270;BME280;42176;43.240;27.880;2023-06-04T05:23:06;100475.16;;;23.80;57.31
56270;BME280;42176;43.240;27.880;2023-06-04T05:25:32;100467.81;;;23.30;60.67
56270;BME280;42176;43.240;27.880;2023-06-04T05:27:57;100477.28;;;22.84;63.49
56270;BME280;42176;43.240;27.880;2023-06-04T05:30:23;100477.31;;;22.57;63.53
56270;BME280;42176;43.240;27.880;2023-06-04T05:32:48;100481.00;;;21.99;65.28
56270;BME280;42176;43.240;27.880;2023-06-04T05:35:16;100480.25;;;21.68;67.05
56270;BME280;42176;43.240;27.880;2023-06-04T05:37:42;100472.34;;;21.65;68.52
56270;BME280;42176;43.240;27.880;2023-06-04T05:40:08;100484.66;;;21.40;69.64
56270;BME280;42176;43.240;27.880;2023-06-04T05:42:35;100482.31;;;21.20;72.18
56270;BME280;42176;43.240;27.880;2023-06-04T05:45:00;100493.13;;;21.34;69.06
56270;BME280;42176;43.240;27.880;2023-06-04T05:47:27;100479.25;;;21.26;69.53
56270;BME280;42176;43.240;27.880;2023-06-04T05:49:54;100486.38;;;21.12;70.23
56270;BME280;42176;43.240;27.880;2023-06-04T05:52:19;100476.94;;;21.20;69.70
56270;BME280;42176;43.240;27.880;2023-06-04T05:54:44;100489.31;;;21.67;65.14
56270;BME280;42176;43.240;27.880;2023-06-04T05:57:10;100491.88;;;22.12;62.22
56270;BME280;42176;43.240;27.880;2023-06-04T05:59:36;100494.69;;;22.11;60.92
56270;BME280;42176;43.240;27.880;2023-06-04T06:02:02;100492.00;;;21.67;61.16
56270;BME280;42176;43.240;27.880;2023-06-04T06:04:27;100494.94;;;21.79;61.83
56270;BME280;42176;43.240;27.880;2023-06-04T06:06:53;100510.69;;;21.56;60.12
56270;BME280;42176;43.240;27.880;2023-06-04T06:09:19;100516.16;;;22.27;57.39
56270;BME280;42176;43.240;27.880;2023-06-04T06:11:45;100507.66;;;23.41;54.09
56270;BME280;42176;43.240;27.880;2023-06-04T06:14:10;100486.53;;;23.98;52.22
56270;BME280;42176;43.240;27.880;2023-06-04T06:16:36;100507.84;;;24.64;48.70
56270;BME280;42176;43.240;27.880;2023-06-04T06:19:02;100494.72;;;24.71;48.74
56270;BME280;42176;43.240;27.880;2023-06-04T06:21:27;100520.84;;;24.72;50.02
56270;BME280;42176;43.240;27.880;2023-06-04T06:23:56;100507.91;;;26.26;45.80
56270;BME280;42176;43.240;27.880;2023-06-04T06:26:21;100509.41;;;26.19;44.55
56270;BME280;42176;43.240;27.880;2023-06-04T06:28:47;100509.53;;;26.18;42.68
56270;BME280;42176;43.240;27.880;2023-06-04T06:31:13;100507.06;;;25.11;45.22
56270;BME280;42176;43.240;27.880;2023-06-04T06:33:38;100499.34;;;27.29;41.36
56270;BME280;42176;43.240;27.880;2023-06-04T06:36:07;100496.25;;;27.95;38.47
56270;BME280;42176;43.240;27.880;2023-06-04T06:38:33;100501.06;;;28.13;38.54
56270;BME280;42176;43.240;27.880;2023-06-04T06:40:58;100477.69;;;28.10;38.36
56270;BME280;42176;43.240;27.880;2023-06-04T06:43:24;100504.44;;;27.64;39.03
56270;BME280;42176;43.240;27.880;2023-06-04T06:45:49;100512.94;;;26.86;39.81
56270;BME280;42176;43.240;27.880;2023-06-04T06:48:15;100505.16;;;26.38;41.33
56270;BME280;42176;43.240;27.880;2023-06-04T06:50:40;100499.28;;;25.87;43.40
56270;BME280;42176;43.240;27.880;2023-06-04T06:53:06;100504.44;;;25.56;43.68
56270;BME280;42176;43.240;27.880;2023-06-04T06:55:31;100506.94;;;25.48;45.35
56270;BME280;42176;43.240;27.880;2023-06-04T06:57:58;100543.94;;;25.72;44.70
56270;BME280;42176;43.240;27.880;2023-06-04T07:00:23;100494.44;;;24.98;44.72
56270;BME280;42176;43.240;27.880;2023-06-04T07:02:49;100499.34;;;24.93;45.33
56270;BME280;42176;43.240;27.880;2023-06-04T07:05:14;100508.22;;;24.84;45.66
56270;BME280;42176;43.240;27.880;2023-06-04T07:07:42;100524.72;;;24.06;46.92
56270;BME280;42176;43.240;27.880;2023-06-04T07:10:09;100527.69;;;25.24;44.20
56270;BME280;42176;43.240;27.880;2023-06-04T07:12:34;100527.66;;;26.84;40.97
56270;BME280;42176;43.240;27.880;2023-06-04T07:15:00;100526.78;;;27.58;37.32
56270;BME280;42176;43.240;27.880;2023-06-04T07:17:26;100511.00;;;28.24;37.26
56270;BME280;42176;43.240;27.880;2023-06-04T07:19:51;100518.06;;;28.56;36.79
56270;BME280;42176;43.240;27.880;2023-06-04T07:22:16;100532.63;;;29.15;35.23
56270;BME280;42176;43.240;27.880;2023-06-04T07:24:42;100538.91;;;29.55;33.39
56270;BME280;42176;43.240;27.880;2023-06-04T07:27:14;100537.47;;;29.41;33.66
56270;BME280;42176;43.240;27.880;2023-06-04T07:29:43;100529.44;;;29.30;35.24
56270;BME280;42176;43.240;27.880;2023-06-04T07:32:08;100528.56;;;29.49;34.31
56270;BME280;42176;43.240;27.880;2023-06-04T07:34:34;100536.56;;;28.42;36.56
56270;BME280;42176;43.240;27.880;2023-06-04T07:37:00;100505.44;;;29.14;35.97
56270;BME280;42176;43.240;27.880;2023-06-04T07:39:26;100528.59;;;30.15;34.57
56270;BME280;42176;43.240;27.880;2023-06-04T07:41:51;100526.97;;;30.04;33.39
56270;BME280;42176;43.240;27.880;2023-06-04T07:44:18;100546.09;;;29.46;34.55
56270;BME280;42176;43.240;27.880;2023-06-04T07:46:43;100535.03;;;29.96;34.42
56270;BME280;42176;43.240;27.880;2023-06-04T07:49:09;100531.72;;;29.44;35.54
56270;BME280;42176;43.240;27.880;2023-06-04T07:51:34;100535.75;;;30.90;33.46
56270;BME280;42176;43.240;27.880;2023-06-04T07:54:00;100538.03;;;31.12;31.84
56270;BME280;42176;43.240;27.880;2023-06-04T07:56:27;100552.63;;;30.39;32.91
56270;BME280;42176;43.240;27.880;2023-06-04T07:58:52;100543.00;;;31.35;32.02
56270;BME280;42176;43.240;27.880;2023-06-04T08:01:18;100545.91;;;31.86;31.45
56270;BME280;42176;43.240;27.880;2023-06-04T08:03:43;100546.03;;;32.62;30.54
56270;BME280;42176;43.240;27.880;2023-06-04T08:06:09;100553.22;;;32.47;30.70
56270;BME280;42176;43.240;27.880;2023-06-04T08:08:36;100547.13;;;33.03;28.98
56270;BME280;42176;43.240;27.880;2023-06-04T08:11:01;100548.78;;;32.71;27.45
56270;BME280;42176;43.240;27.880;2023-06-04T08:13:27;100576.66;;;31.98;28.41
56270;BME280;42176;43.240;27.880;2023-06-04T08:15:53;100564.28;;;31.41;28.99
56270;BME280;42176;43.240;27.880;2023-06-04T08:18:18;100543.31;;;31.32;30.42
56270;BME280;42176;43.240;27.880;2023-06-04T08:20:44;100557.84;;;32.03;29.95
56270;BME280;42176;43.240;27.880;2023-06-04T08:23:09;100540.38;;;32.13;31.07
56270;BME280;42176;43.240;27.880;2023-06-04T08:25:35;100550.50;;;32.12;30.99
56270;BME280;42176;43.240;27.880;2023-06-04T08:28:00;100563.72;;;32.68;29.13
56270;BME280;42176;43.240;27.880;2023-06-04T08:30:26;100557.44;;;33.25;28.29
56270;BME280;42176;43.240;27.880;2023-06-04T08:32:53;100548.25;;;32.08;30.35
56270;BME280;42176;43.240;27.880;2023-06-04T08:35:18;100564.78;;;30.82;31.88
56270;BME280;42176;43.240;27.880;2023-06-04T08:37:44;100574.13;;;31.34;31.33
56270;BME280;42176;43.240;27.880;2023-06-04T08:40:10;100568.84;;;31.14;30.91
56270;BME280;42176;43.240;27.880;2023-06-04T08:42:41;100573.25;;;30.61;31.35
56270;BME280;42176;43.240;27.880;2023-06-04T08:45:12;100565.88;;;30.44;31.18
56270;BME280;42176;43.240;27.880;2023-06-04T08:47:47;100583.88;;;29.51;32.69
56270;BME280;42176;43.240;27.880;2023-06-04T08:50:16;100581.44;;;29.28;32.93
56270;BME280;42176;43.240;27.880;2023-06-04T08:52:42;100561.75;;;29.54;31.56
56270;BME280;42176;43.240;27.880;2023-06-04T08:55:08;100563.56;;;28.65;33.05
56270;BME280;42176;43.240;27.880;2023-06-04T08:57:36;100569.94;;;29.15;32.70
56270;BME280;42176;43.240;27.880;2023-06-04T09:00:03;100568.66;;;29.49;32.90
56270;BME280;42176;43.240;27.880;2023-06-04T09:02:30;100567.69;;;29.40;33.13
56270;BME280;42176;43.240;27.880;2023-06-04T09:04:56;100567.28;;;29.82;32.13
56270;BME280;42176;43.240;27.880;2023-06-04T09:07:23;100562.59;;;30.12;31.70
56270;BME280;42176;43.240;27.880;2023-06-04T09:09:49;100565.09;;;30.23;32.11
56270;BME280;42176;43.240;27.880;2023-06-04T09:12:21;100551.44;;;30.51;32.25
56270;BME280;42176;43.240;27.880;2023-06-04T09:14:48;100565.22;;;30.04;32.42
56270;BME280;42176;43.240;27.880;2023-06-04T09:17:20;100568.50;;;29.50;33.20
56270;BME280;42176;43.240;27.880;2023-06-04T09:19:46;100561.28;;;28.70;34.78
56270;BME280;42176;43.240;27.880;2023-06-04T09:22:11;100583.19;;;28.39;35.08
56270;BME280;42176;43.240;27.880;2023-06-04T09:24:40;100568.94;;;27.95;36.70
56270;BME280;42176;43.240;27.880;2023-06-04T09:27:16;100559.03;;;27.42;37.07
56270;BME280;42176;43.240;27.880;2023-06-04T09:29:53;100562.91;;;26.74;37.82
56270;BME280;42176;43.240;27.880;2023-06-04T09:32:25;100573.28;;;26.69;37.95
56270;BME280;42176;43.240;27.880;2023-06-04T09:34:55;100560.44;;;26.71;38.43
56270;BME280;42176;43.240;27.880;2023-06-04T09:37:22;100561.69;;;26.55;38.16
56270;BME280;42176;43.240;27.880;2023-06-04T09:39:55;100575.06;;;26.36;37.83
56270;BME280;42176;43.240;27.880;2023-06-04T09:42:24;100572.41;;;26.13;37.58
56270;BME280;42176;43.240;27.880;2023-06-04T09:44:50;100576.06;;;25.89;37.49
56270;BME280;42176;43.240;27.880;2023-06-04T09:47:15;100576.56;;;26.06;36.22
56270;BME280;42176;43.240;27.880;2023-06-04T09:49:45;100578.31;;;26.18;37.64
56270;BME280;42176;43.240;27.880;2023-06-04T09:52:11;100565.94;;;26.03;38.18
56270;BME280;42176;43.240;27.880;2023-06-04T09:54:41;100562.59;;;26.10;37.84
56270;BME280;42176;43.240;27.880;2023-06-04T09:57:19;100565.31;;;25.99;38.30
56270;BME280;42176;43.240;27.880;2023-06-04T09:59:45;100559.13;;;26.08;36.94
56270;BME280;42176;43.240;27.880;2023-06-04T10:02:12;100576.88;;;25.44;37.89
56270;BME280;42176;43.240;27.880;2023-06-04T10:04:42;100567.97;;;25.06;37.55
56270;BME280;42176;43.240;27.880;2023-06-04T10:07:09;100586.03;;;25.30;37.74
56270;BME280;42176;43.240;27.880;2023-06-04T10:09:38;100565.19;;;25.31;38.95
56270;BME280;42176;43.240;27.880;2023-06-04T10:12:13;100555.94;;;25.22;39.34
56270;BME280;42176;43.240;27.880;2023-06-04T10:14:46;100582.50;;;25.05;39.23
56270;BME280;42176;43.240;27.880;2023-06-04T10:17:15;100584.28;;;25.18;38.34
56270;BME280;42176;43.240;27.880;2023-06-04T10:19:43;100576.59;;;25.12;37.77
56270;BME280;42176;43.240;27.880;2023-06-04T10:22:10;100561.38;;;24.98;38.04
56270;BME280;42176;43.240;27.880;2023-06-04T10:24:39;100563.53;;;25.05;37.50
56270;BME280;42176;43.240;27.880;2023-06-04T10:27:05;100556.56;;;24.90;37.59
56270;BME280;42176;43.240;27.880;2023-06-04T10:29:36;100551.91;;;25.03;34.79
56270;BME280;42176;43.240;27.880;2023-06-04T10:32:02;100530.69;;;24.97;36.37
56270;BME280;42176;43.240;27.880;2023-06-04T10:34:28;100564.72;;;25.01;36.72
56270;BME280;42176;43.240;27.880;2023-06-04T10:36:54;100548.91;;;24.95;37.20
56270;BME280;42176;43.240;27.880;2023-06-04T10:39:30;100564.00;;;25.11;37.92
56270;BME280;42176;43.240;27.880;2023-06-04T10:42:01;100564.16;;;24.85;37.65
56270;BME280;42176;43.240;27.880;2023-06-04T10:44:29;100558.28;;;24.91;37.09
56270;BME280;42176;43.240;27.880;2023-06-04T10:46:55;100552.03;;;25.02;37.49
56270;BME280;42176;43.240;27.880;2023-06-04T10:49:30;100551.97;;;25.26;37.34
56270;BME280;42176;43.240;27.880;2023-06-04T10:51:56;100568.03;;;25.29;36.73
56270;BME280;42176;43.240;27.880;2023-06-04T10:54:28;100551.91;;;25.03;35.83
56270;BME280;42176;43.240;27.880;2023-06-04T10:56:53;100556.59;;;24.77;36.76
56270;BME280;42176;43.240;27.880;2023-06-04T10:59:19;100556.22;;;24.57;37.29
56270;BME280;42176;43.240;27.880;2023-06-04T11:01:45;100553.00;;;24.76;37.40
56270;BME280;42176;43.240;27.880;2023-06-04T11:04:24;100556.56;;;24.90;37.61
56270;BME280;42176;43.240;27.880;2023-06-04T11:07:06;100554.03;;;25.11;36.50
56270;BME280;42176;43.240;27.880;2023-06-04T11:09:50;100563.56;;;25.17;36.54
56270;BME280;42176;43.240;27.880;2023-06-04T11:12:16;100523.53;;;24.96;36.72
56270;BME280;42176;43.240;27.880;2023-06-04T11:14:56;100534.94;;;25.13;36.75
56270;BME280;42176;43.240;27.880;2023-06-04T11:17:22;100557.63;;;25.23;37.16
56270;BME280;42176;43.240;27.880;2023-06-04T11:19:47;100560.72;;;25.18;36.58
56270;BME280;42176;43.240;27.880;2023-06-04T11:22:13;100577.25;;;24.54;36.93
56270;BME280;42176;43.240;27.880;2023-06-04T11:24:39;100558.88;;;24.33;37.64
56270;BME280;42176;43.240;27.880;2023-06-04T11:27:05;100564.69;;;24.53;37.38
56270;BME280;42176;43.240;27.880;2023-06-04T11:29:30;100555.13;;;24.60;37.16
56270;BME280;42176;43.240;27.880;2023-06-04T11:31:56;100581.34;;;24.72;36.28
56270;BME280;42176;43.240;27.880;2023-06-04T11:34:29;100563.75;;;24.78;36.19
56270;BME280;42176;43.240;27.880;2023-06-04T11:37:07;100570.50;;;24.72;36.55
56270;BME280;42176;43.240;27.880;2023-06-04T11:39:37;100581.34;;;24.72;36.65
56270;BME280;42176;43.240;27.880;2023-06-04T11:42:07;100566.13;;;24.83;35.93
56270;BME280;42176;43.240;27.880;2023-06-04T11:44:33;100571.31;;;24.86;35.40
56270;BME280;42176;43.240;27.880;2023-06-04T11:46:59;100572.34;;;24.96;35.28
56270;BME280;42176;43.240;27.880;2023-06-04T11:49:25;100571.66;;;25.05;35.36
56270;BME280;42176;43.240;27.880;2023-06-04T11:51:52;100578.31;;;25.13;34.89
56270;BME280;42176;43.240;27.880;2023-06-04T11:54:20;100582.97;;;24.99;34.99
56270;BME280;42176;43.240;27.880;2023-06-04T11:56:48;100569.06;;;24.80;35.34
56270;BME280;42176;43.240;27.880;2023-06-04T11:59:15;100565.25;;;24.82;35.45
56270;BME280;42176;43.240;27.880;2023-06-04T12:01:45;100575.94;;;24.72;35.23
56270;BME280;42176;43.240;27.880;2023-06-04T12:04:18;100567.44;;;24.77;35.60
56270;BME280;42176;43.240;27.880;2023-06-04T12:06:57;100568.47;;;24.87;35.58
56270;BME280;42176;43.240;27.880;2023-06-04T12:09:24;100573.03;;;24.87;34.63
56270;BME280;42176;43.240;27.880;2023-06-04T12:12:00;100555.81;;;24.88;34.59
56270;BME280;42176;43.240;27.880;2023-06-04T12:14:27;100563.44;;;24.94;35.45
56270;BME280;42176;43.240;27.880;2023-06-04T12:17:05;100572.81;;;24.90;36.54
56270;BME280;42176;43.240;27.880;2023-06-04T12:19:31;100571.31;;;24.86;38.58
56270;BME280;42176;43.240;27.880;2023-06-04T12:22:06;100566.16;;;24.94;36.03
56270;BME280;42176;43.240;27.880;2023-06-04T12:24:33;100586.44;;;24.64;40.57
56270;BME280;42176;43.240;27.880;2023-06-04T12:27:07;100562.50;;;24.21;40.04
56270;BME280;42176;43.240;27.880;2023-06-04T12:29:34;100574.09;;;24.23;39.79
56270;BME280;42176;43.240;27.880;2023-06-04T12:34:29;100569.53;;;23.84;41.10
56270;BME280;42176;43.240;27.880;2023-06-04T12:36:54;100556.34;;;23.67;42.39
56270;BME280;42176;43.240;27.880;2023-06-04T12:39:20;100577.34;;;23.50;43.54
56270;BME280;42176;43.240;27.880;2023-06-04T12:41:46;100572.91;;;23.36;44.19